Time;durP1;ratioP1;P1;durP2;ratioP2;P2;SDS_P1;SDS_P2;PMS_P1;PMS_P2;Temp;Humidity;BMP_temperature;BMP_pressure;BME280_temperature;BME280_humidity;BME280_pressure;Samples;Min_cycle;Max_cycle;Signal;HPM_P1;HPM_P2
2023/03/08 00:00:33;;;;;;;4.05;0.80;;;1.90;99.90;;;;;;5108664;27;20047;-82
2023/03/08 00:02:59;;;;;;;3.03;1.05;;;0.30;99.90;;;;;;5109626;27;20100;-81
2023/03/08 00:05:25;;;;;;;5.53;0.93;;;0.30;99.90;;;;;;5108695;27;20099;-81
2023/03/08 00:07:54;;;;;;;2.00;0.73;;;0.40;99.90;;;;;;5075351;27;20045;-81
2023/03/08 00:10:21;;;;;;;4.05;1.02;;;1.10;99.90;;;;;;5108461;27;20054;-81
2023/03/08 00:12:47;;;;;;;5.05;0.85;;;0.40;99.90;;;;;;5109308;27;20047;-80
2023/03/08 00:15:13;;;;;;;2.83;0.80;;;0.40;99.90;;;;;;5074800;27;20039;-81
2023/03/08 00:17:39;;;;;;;2.13;0.75;;;0.50;99.90;;;;;;5108234;27;20092;-80
2023/03/08 00:20:07;;;;;;;3.00;0.80;;;1.60;99.90;;;;;;5109123;27;20039;-81
2023/03/08 00:22:37;;;;;;;4.65;0.80;;;0.50;99.90;;;;;;5091292;27;20031;-80
2023/03/08 00:25:04;;;;;;;5.50;1.15;;;0.50;99.90;;;;;;5109524;27;20489;-81
2023/03/08 00:27:29;;;;;;;2.60;1.13;;;0.50;99.90;;;;;;5108360;27;20039;-80
2023/03/08 00:29:55;;;;;;;1.38;0.70;;;0.50;99.90;;;;;;5108504;27;20053;-81
2023/03/08 00:32:21;;;;;;;2.25;0.80;;;0.40;99.90;;;;;;5091577;27;20054;-81
2023/03/08 00:34:47;;;;;;;4.85;1.15;;;0.40;99.90;;;;;;5074085;27;20422;-79
2023/03/08 00:37:13;;;;;;;7.60;1.00;;;0.40;99.90;;;;;;5108234;28;20039;-79
2023/03/08 00:39:39;;;;;;;3.38;1.08;;;0.30;99.90;;;;;;5107786;27;20123;-81
2023/03/08 00:42:05;;;;;;;3.60;0.70;;;1.20;99.90;;;;;;5091759;27;20066;-79
2023/03/08 00:44:30;;;;;;;6.07;0.65;;;0.20;99.90;;;;;;5057597;27;20046;-79
2023/03/08 00:46:56;;;;;;;6.28;1.10;;;1.70;99.90;;;;;;5091965;27;20134;-79
2023/03/08 00:49:21;;;;;;;2.60;1.08;;;0.80;99.90;;;;;;5091617;27;20482;-79
2023/03/08 00:51:48;;;;;;;6.20;0.80;;;0.10;99.90;;;;;;5107572;27;20406;-79
2023/03/08 00:54:14;;;;;;;2.03;0.63;;;0.60;99.90;;;;;;5108314;27;20046;-80
2023/03/08 00:56:40;;;;;;;3.03;0.93;;;0.00;99.90;;;;;;5107763;27;20043;-79
2023/03/08 00:59:06;;;;;;;0.98;0.55;;;0.00;99.90;;;;;;5091402;27;20058;-79
2023/03/08 01:01:32;;;;;;;5.72;0.90;;;1.60;99.90;;;;;;5107820;27;20462;-79
2023/03/08 01:03:58;;;;;;;5.07;0.68;;;0.90;99.90;;;;;;5108640;27;20125;-79
2023/03/08 01:06:23;;;;;;;3.25;0.70;;;-0.10;99.90;;;;;;5108513;28;20047;-79
2023/03/08 01:08:50;;;;;;;3.03;1.08;;;-0.10;99.90;;;;;;5091315;28;20129;-79
2023/03/08 01:11:20;;;;;;;1.67;0.90;;;1.30;99.90;;;;;;5127534;27;20393;-78
2023/03/08 01:13:46;;;;;;;1.70;0.80;;;-0.10;99.90;;;;;;5108441;28;20126;-79
2023/03/08 01:16:23;;;;;;;2.97;0.98;;;-0.10;99.90;;;;;;5126818;28;20490;-79
2023/03/08 01:18:50;;;;;;;2.65;0.68;;;-0.10;99.90;;;;;;5125980;28;20490;-79
2023/03/08 01:21:15;;;;;;;2.22;0.80;;;1.30;99.90;;;;;;5126571;28;20567;-79
2023/03/08 01:23:41;;;;;;;0.75;0.43;;;-0.20;99.90;;;;;;5107956;28;20039;-79
2023/03/08 01:26:11;;;;;;;2.40;0.63;;;1.30;99.90;;;;;;5090628;28;20042;-78
2023/03/08 01:28:37;;;;;;;3.30;0.52;;;-0.20;99.90;;;;;;5126416;28;20042;-79
2023/03/08 01:31:05;;;;;;;1.60;0.70;;;-0.20;99.90;;;;;;5107321;28;20039;-78
2023/03/08 01:33:30;;;;;;;4.03;0.68;;;-0.20;99.90;;;;;;5107993;28;20039;-79
2023/03/08 01:35:56;;;;;;;4.15;0.88;;;0.90;99.90;;;;;;5090806;28;20485;-79
2023/03/08 01:38:23;;;;;;;4.30;1.25;;;-0.30;99.90;;;;;;5091323;28;20043;-80
2023/03/08 01:40:53;;;;;;;2.92;0.98;;;-0.30;99.90;;;;;;5090637;28;20051;-81
2023/03/08 01:43:26;;;;;;;3.55;0.80;;;1.10;99.90;;;;;;5090593;28;20382;-81
2023/03/08 01:46:05;;;;;;;4.35;0.63;;;-0.40;99.90;;;;;;5090986;28;20046;-81
2023/03/08 01:48:36;;;;;;;2.95;0.63;;;-0.40;99.90;;;;;;5107530;27;20074;-81
2023/03/08 01:51:05;;;;;;;1.98;0.85;;;-0.40;99.90;;;;;;5111998;27;20355;-81
2023/03/08 01:53:32;;;;;;;3.30;0.80;;;-0.50;99.90;;;;;;5111153;27;20043;-82
2023/03/08 01:55:58;;;;;;;3.60;0.73;;;0.50;99.90;;;;;;5094120;27;20103;-78
2023/03/08 01:58:25;;;;;;;4.13;0.85;;;-0.50;99.90;;;;;;5111319;27;20138;-79
2023/03/08 02:00:51;;;;;;;5.78;0.70;;;-0.50;99.90;;;;;;5094588;27;20198;-81
2023/03/08 02:03:16;;;;;;;1.85;0.75;;;-0.60;99.90;;;;;;5061434;27;20094;-81
2023/03/08 02:05:43;;;;;;;1.73;0.50;;;-0.50;99.90;;;;;;5076790;27;20046;-79
2023/03/08 02:08:09;;;;;;;8.27;0.70;;;-0.60;99.90;;;;;;5111848;27;20394;-81
2023/03/08 02:10:36;;;;;;;2.78;0.95;;;-0.60;99.90;;;;;;5093955;27;20043;-81
2023/03/08 02:13:05;;;;;;;4.28;0.60;;;0.40;99.90;;;;;;5093822;27;20086;-78
2023/03/08 02:15:30;;;;;;;2.20;0.73;;;-0.60;99.90;;;;;;5111029;27;20081;-78
2023/03/08 02:17:56;;;;;;;3.15;0.50;;;-0.60;99.90;;;;;;5110523;27;20079;-79
2023/03/08 02:20:29;;;;;;;1.38;0.40;;;-0.30;99.90;;;;;;5094276;27;20047;-79
2023/03/08 02:23:05;;;;;;;1.25;0.45;;;-0.60;99.90;;;;;;5110584;27;20039;-79
2023/03/08 02:25:31;;;;;;;2.95;0.45;;;-0.50;99.90;;;;;;5110969;27;20490;-79
2023/03/08 02:27:56;;;;;;;5.30;0.82;;;0.80;99.90;;;;;;5094426;27;20047;-79
2023/03/08 02:30:25;;;;;;;3.20;0.50;;;-0.50;99.90;;;;;;5093674;27;20043;-78
2023/03/08 02:32:51;;;;;;;2.42;0.63;;;-0.50;99.90;;;;;;5129527;27;20051;-79
2023/03/08 02:35:17;;;;;;;1.30;0.38;;;-0.50;99.90;;;;;;5093622;27;20042;-79
2023/03/08 02:37:43;;;;;;;2.88;0.38;;;-0.60;99.90;;;;;;5111285;27;20043;-79
2023/03/08 02:40:10;;;;;;;4.50;0.77;;;1.00;99.90;;;;;;5110559;27;20133;-79
2023/03/08 02:42:36;;;;;;;2.22;0.40;;;-0.60;99.90;;;;;;5111215;27;20133;-79
2023/03/08 02:45:02;;;;;;;1.52;0.40;;;-0.60;99.90;;;;;;5110432;27;20370;-79
2023/03/08 02:47:28;;;;;;;1.15;0.40;;;-0.60;99.90;;;;;;5109886;27;20047;-81
2023/03/08 02:49:54;;;;;;;1.33;0.68;;;-0.60;99.90;;;;;;5093778;27;20050;-79
2023/03/08 02:52:20;;;;;;;2.28;0.40;;;-0.60;99.90;;;;;;5059572;27;20043;-81
2023/03/08 02:54:46;;;;;;;2.15;0.50;;;-0.70;99.90;;;;;;5077033;27;20123;-79
2023/03/08 02:57:12;;;;;;;0.88;0.45;;;-0.70;99.90;;;;;;5110059;27;20096;-80
2023/03/08 02:59:37;;;;;;;1.55;0.40;;;-0.70;99.90;;;;;;5110773;27;20057;-78
2023/03/08 03:02:03;;;;;;;2.03;0.50;;;-0.70;99.90;;;;;;5092814;27;20047;-78
2023/03/08 03:04:30;;;;;;;1.17;0.50;;;-0.70;99.90;;;;;;5109861;27;20043;-78
2023/03/08 03:06:56;;;;;;;1.08;0.50;;;-0.70;99.90;;;;;;5110857;27;20120;-78
2023/03/08 03:09:22;;;;;;;0.40;0.22;;;-0.60;99.90;;;;;;5109616;27;20045;-78
2023/03/08 03:11:48;;;;;;;3.45;0.70;;;-0.40;99.90;;;;;;5094004;27;20039;-78
2023/03/08 03:14:14;;;;;;;0.70;0.50;;;-0.60;99.90;;;;;;5093043;27;20375;-79
2023/03/08 03:16:39;;;;;;;5.20;0.50;;;-0.60;99.90;;;;;;5093942;27;20078;-80
2023/03/08 03:19:05;;;;;;;3.25;0.82;;;-0.60;99.90;;;;;;5092960;27;20031;-80
2023/03/08 03:21:31;;;;;;;3.20;0.77;;;0.60;99.90;;;;;;5093121;27;20043;-80
2023/03/08 03:23:57;;;;;;;6.53;1.13;;;-0.50;99.90;;;;;;5093482;27;20038;-80
2023/03/08 03:26:24;;;;;;;0.75;0.60;;;-0.50;99.90;;;;;;5127923;27;20430;-80
2023/03/08 03:28:51;;;;;;;5.18;0.73;;;-0.50;99.90;;;;;;5128949;27;20040;-80
2023/03/08 03:31:22;;;;;;;2.15;0.68;;;-0.40;99.90;;;;;;5109295;27;20537;-79
2023/03/08 03:33:48;;;;;;;5.05;0.73;;;-0.50;99.90;;;;;;5093398;27;20091;-79
2023/03/08 03:36:16;;;;;;;2.28;0.73;;;-0.60;99.90;;;;;;5127979;27;20505;-79
2023/03/08 03:38:42;;;;;;;3.78;0.65;;;-0.50;99.90;;;;;;5109331;27;20055;-80
2023/03/08 03:41:14;;;;;;;6.35;0.75;;;-0.40;99.90;;;;;;5109725;27;20477;-80
2023/03/08 03:43:40;;;;;;;1.85;0.70;;;-0.50;99.90;;;;;;5092466;27;20054;-80
2023/03/08 03:46:09;;;;;;;0.90;0.43;;;-0.50;99.90;;;;;;5109868;27;20093;-80
2023/03/08 03:48:35;;;;;;;3.90;1.05;;;-0.10;99.90;;;;;;5091960;27;20085;-80
2023/03/08 03:51:02;;;;;;;1.08;0.68;;;-0.60;99.90;;;;;;5109436;27;20089;-80
2023/03/08 03:53:30;;;;;;;2.10;0.70;;;-0.60;99.90;;;;;;5109262;27;20490;-80
2023/03/08 03:56:04;;;;;;;1.58;0.70;;;0.40;99.90;;;;;;5108756;27;20047;-81
2023/03/08 03:58:30;;;;;;;1.00;0.40;;;-0.50;99.90;;;;;;5109233;27;20051;-80
2023/03/08 04:00:56;;;;;;;4.97;0.80;;;-0.60;99.90;;;;;;5108724;27;20058;-80
2023/03/08 04:03:22;;;;;;;1.88;0.80;;;-0.60;99.90;;;;;;5128080;27;20039;-80
2023/03/08 04:05:47;;;;;;;4.45;0.68;;;-0.60;99.90;;;;;;5127412;27;20043;-80
2023/03/08 04:08:13;;;;;;;2.95;0.57;;;-0.60;99.90;;;;;;5109307;27;20042;-79
2023/03/08 04:10:39;;;;;;;1.10;0.50;;;-0.60;99.90;;;;;;5109065;27;20490;-78
2023/03/08 04:13:05;;;;;;;5.40;0.57;;;-0.60;99.90;;;;;;5074855;27;20562;-78
2023/03/08 04:15:30;;;;;;;1.95;0.60;;;-0.70;99.90;;;;;;5074763;27;20480;-79
2023/03/08 04:17:56;;;;;;;2.40;0.93;;;0.30;99.90;;;;;;5091134;27;20047;-79
2023/03/08 04:20:23;;;;;;;2.38;0.68;;;-0.70;99.90;;;;;;5092301;27;20038;-79
2023/03/08 04:22:49;;;;;;;3.30;0.68;;;-0.70;99.90;;;;;;5108127;27;20042;-79
2023/03/08 04:25:15;;;;;;;2.70;0.75;;;-0.70;99.90;;;;;;5092116;27;20126;-79
2023/03/08 04:27:40;;;;;;;2.85;0.50;;;-0.70;99.90;;;;;;5127203;27;20297;-79
2023/03/08 04:30:07;;;;;;;2.03;0.52;;;-0.70;99.90;;;;;;5108623;27;20066;-79
2023/03/08 04:32:33;;;;;;;2.08;0.65;;;-0.80;99.90;;;;;;5108949;27;20443;-77
2023/03/08 04:34:58;;;;;;;1.13;0.47;;;-0.60;99.90;;;;;;5126567;27;20051;-78
2023/03/08 04:37:25;;;;;;;2.03;0.60;;;-0.80;99.90;;;;;;5092043;27;20054;-78
2023/03/08 04:39:50;;;;;;;4.63;0.47;;;-0.10;99.90;;;;;;5091300;27;20039;-79
2023/03/08 04:42:16;;;;;;;3.20;0.60;;;-0.80;99.90;;;;;;5074949;27;20103;-79
2023/03/08 04:44:42;;;;;;;2.88;0.75;;;-0.80;99.90;;;;;;5090859;27;20050;-79
2023/03/08 04:47:08;;;;;;;1.17;0.40;;;-0.80;99.90;;;;;;5091438;27;20047;-80
2023/03/08 04:49:34;;;;;;;2.78;0.90;;;0.60;99.90;;;;;;5091703;28;20074;-79
2023/03/08 04:52:00;;;;;;;1.38;0.50;;;0.00;99.90;;;;;;5090750;27;20147;-80
2023/03/08 04:54:26;;;;;;;4.53;0.60;;;-0.90;99.90;;;;;;5108955;27;20058;-80
2023/03/08 04:56:52;;;;;;;2.88;0.60;;;-0.90;99.90;;;;;;5108160;27;20432;-79
2023/03/08 04:59:17;;;;;;;4.32;0.70;;;0.20;99.90;;;;;;5126967;27;20122;-78
2023/03/08 05:01:43;;;;;;;4.40;0.43;;;-0.90;99.90;;;;;;5126156;27;20054;-79
2023/03/08 05:04:10;;;;;;;1.65;0.70;;;-0.90;99.90;;;;;;5126842;27;20091;-79
2023/03/08 05:06:36;;;;;;;2.92;0.50;;;-0.90;99.90;;;;;;5126862;27;20043;-80
2023/03/08 05:09:02;;;;;;;6.90;0.82;;;-0.90;99.90;;;;;;5091016;27;20134;-78
2023/03/08 05:11:28;;;;;;;1.67;0.52;;;-0.80;99.90;;;;;;5092049;28;20039;-80
2023/03/08 05:13:56;;;;;;;2.17;0.50;;;-0.80;99.90;;;;;;5091111;28;20047;-80
2023/03/08 05:16:22;;;;;;;0.52;0.50;;;-0.80;99.90;;;;;;5110826;28;20047;-80
2023/03/08 05:18:48;;;;;;;2.45;0.40;;;-0.80;99.90;;;;;;5108996;28;20040;-81
2023/03/08 05:21:17;;;;;;;3.72;0.68;;;-0.80;99.90;;;;;;5108975;28;20043;-79
2023/03/08 05:23:43;;;;;;;2.25;0.60;;;-0.80;99.90;;;;;;5109369;27;20244;-79
2023/03/08 05:26:11;;;;;;;2.35;0.32;;;-0.80;99.90;;;;;;5096298;27;20035;-78
2023/03/08 05:28:36;;;;;;;2.65;0.65;;;-0.70;99.90;;;;;;5118546;27;20035;-79
2023/03/08 05:31:09;;;;;;;4.28;0.40;;;-0.70;99.90;;;;;;5116633;27;20431;-79
2023/03/08 05:33:36;;;;;;;0.80;0.40;;;-0.70;99.90;;;;;;5118481;27;20043;-79
2023/03/08 05:36:02;;;;;;;2.92;0.52;;;0.20;99.90;;;;;;5134845;27;20125;-79
2023/03/08 05:38:28;;;;;;;5.45;0.50;;;-0.70;99.90;;;;;;5130585;27;20140;-79
2023/03/08 05:40:58;;;;;;;0.47;0.30;;;-0.70;99.90;;;;;;5111868;27;20100;-80
2023/03/08 05:43:24;;;;;;;3.20;0.68;;;-0.40;99.90;;;;;;5111600;27;20053;-81
2023/03/08 05:45:58;;;;;;;2.25;0.60;;;-0.70;99.90;;;;;;5078556;27;20039;-80
2023/03/08 05:48:24;;;;;;;2.63;0.77;;;-0.70;99.90;;;;;;5095055;27;20055;-80
2023/03/08 05:50:50;;;;;;;4.18;0.77;;;-0.70;99.90;;;;;;5131071;27;20481;-80
2023/03/08 05:53:16;;;;;;;2.78;0.95;;;-0.70;99.90;;;;;;5078072;27;20129;-83
2023/03/08 05:55:41;;;;;;;0.85;0.40;;;-0.70;99.90;;;;;;5094408;27;20574;-82
2023/03/08 05:58:07;;;;;;;2.75;0.60;;;-0.70;99.90;;;;;;5094740;27;20107;-81
2023/03/08 06:00:32;;;;;;;2.42;0.70;;;-0.70;99.90;;;;;;5111163;27;20367;-81
2023/03/08 06:03:02;;;;;;;1.67;0.70;;;-0.80;99.90;;;;;;5077933;27;20090;-82
2023/03/08 06:05:29;;;;;;;3.58;0.60;;;-0.60;99.90;;;;;;5078115;27;20039;-82
2023/03/08 06:07:54;;;;;;;3.40;0.50;;;0.80;99.90;;;;;;5112221;27;20051;-81
2023/03/08 06:10:20;;;;;;;2.90;0.50;;;-0.70;99.90;;;;;;5077186;27;20490;-81
2023/03/08 06:12:46;;;;;;;8.32;0.80;;;-0.70;99.90;;;;;;5111695;27;20042;-81
2023/03/08 06:15:12;;;;;;;2.25;0.70;;;-0.70;99.90;;;;;;5093937;27;20561;-81
2023/03/08 06:17:39;;;;;;;3.75;1.58;;;0.80;99.90;;;;;;5111041;27;20043;-81
2023/03/08 06:20:06;;;;;;;3.83;0.82;;;0.70;99.90;;;;;;5094604;27;20062;-80
2023/03/08 06:22:32;;;;;;;2.97;0.52;;;-0.60;99.90;;;;;;5111050;27;20043;-81
2023/03/08 06:24:57;;;;;;;1.83;0.70;;;-0.60;99.90;;;;;;5111611;27;20126;-81
2023/03/08 06:27:23;;;;;;;2.08;0.60;;;-0.60;99.90;;;;;;5094177;27;20050;-81
2023/03/08 06:29:49;;;;;;;2.20;0.65;;;-0.60;99.90;;;;;;5110765;27;20498;-80
2023/03/08 06:32:16;;;;;;;2.13;0.60;;;-0.30;99.90;;;;;;5077313;27;20043;-80
2023/03/08 06:34:42;;;;;;;9.43;0.98;;;-0.60;99.90;;;;;;5076458;27;20035;-79
2023/03/08 06:37:07;;;;;;;5.03;1.02;;;-0.60;99.90;;;;;;5075948;27;20047;-78
2023/03/08 06:39:33;;;;;;;5.22;0.60;;;-0.60;99.90;;;;;;5093109;27;20521;-78
2023/03/08 06:42:02;;;;;;;1.95;0.45;;;-0.60;99.90;;;;;;5094389;27;20115;-78
2023/03/08 06:44:29;;;;;;;1.15;0.50;;;-0.50;99.90;;;;;;5110456;27;20422;-77
2023/03/08 06:46:55;;;;;;;1.50;0.70;;;-0.50;99.90;;;;;;5110794;27;20539;-80
2023/03/08 06:49:21;;;;;;;4.00;1.10;;;-0.50;99.90;;;;;;5093825;27;20503;-79
2023/03/08 06:51:47;;;;;;;2.75;1.00;;;-0.50;99.90;;;;;;5110298;27;20051;-78
2023/03/08 06:54:16;;;;;;;3.55;1.15;;;-0.50;99.90;;;;;;5093861;27;20051;-79
2023/03/08 06:56:46;;;;;;;3.25;1.13;;;0.10;99.90;;;;;;5110043;27;20078;-82
2023/03/08 06:59:13;;;;;;;4.35;0.70;;;-0.40;99.90;;;;;;5129001;27;20097;-78
2023/03/08 07:01:39;;;;;;;2.97;1.17;;;-0.30;99.90;;;;;;5128476;27;20146;-80
2023/03/08 07:04:05;;;;;;;2.60;0.90;;;-0.30;99.90;;;;;;5128629;27;20083;-79
2023/03/08 07:06:31;;;;;;;2.85;0.70;;;-0.30;99.90;;;;;;5128555;27;20035;-77
2023/03/08 07:08:57;;;;;;;2.65;0.80;;;-0.20;99.90;;;;;;5128286;27;20268;-79
2023/03/08 07:11:25;;;;;;;4.53;0.70;;;-0.20;99.90;;;;;;5076857;27;20047;-78
2023/03/08 07:13:51;;;;;;;3.10;0.63;;;-0.20;99.90;;;;;;5092275;27;20054;-78
2023/03/08 07:16:17;;;;;;;2.92;1.10;;;0.00;99.90;;;;;;5129398;27;20100;-78
2023/03/08 07:18:43;;;;;;;3.72;0.95;;;-0.10;99.90;;;;;;5128154;27;20118;-78
2023/03/08 07:21:09;;;;;;;2.92;0.70;;;1.00;99.90;;;;;;5128655;27;20046;-80
2023/03/08 07:23:35;;;;;;;1.25;0.77;;;0.00;99.90;;;;;;5128643;27;20039;-77
2023/03/08 07:26:08;;;;;;;2.85;0.90;;;0.00;99.90;;;;;;5128042;27;20122;-77
2023/03/08 07:28:34;;;;;;;;;;;0.10;99.90;;;;;;5110488;27;20043;-78
2023/03/08 07:30:59;;;;;;;2.08;0.80;;;0.10;99.90;;;;;;5127729;27;19926;-78
2023/03/08 07:33:25;;;;;;;5.45;1.17;;;0.20;99.90;;;;;;5110534;27;20035;-76
2023/03/08 07:35:51;;;;;;;3.05;1.38;;;0.20;99.90;;;;;;5109473;27;20458;-78
2023/03/08 07:38:17;;;;;;;2.40;1.27;;;0.30;99.90;;;;;;5128368;27;20122;-77
2023/03/08 07:40:43;;;;;;;5.30;1.55;;;0.40;99.90;;;;;;5109424;27;20055;-77
2023/03/08 07:43:08;;;;;;;2.80;1.40;;;0.40;99.90;;;;;;5091968;27;20100;-77
2023/03/08 07:45:36;;;;;;;7.90;1.60;;;0.40;99.90;;;;;;5128418;27;20521;-78
2023/03/08 07:48:02;;;;;;;3.33;1.45;;;0.50;99.90;;;;;;5108342;27;20047;-78
2023/03/08 07:50:28;;;;;;;2.15;1.30;;;0.60;99.90;;;;;;5110173;27;20054;-78
2023/03/08 07:52:54;;;;;;;6.68;2.00;;;0.60;99.90;;;;;;5127293;27;20035;-77
2023/03/08 07:55:20;;;;;;;6.95;1.75;;;0.70;99.90;;;;;;5092467;27;20524;-78
2023/03/08 07:57:45;;;;;;;9.95;2.47;;;0.80;99.90;;;;;;5091715;27;20079;-78
2023/03/08 08:00:12;;;;;;;5.10;1.50;;;0.80;99.90;;;;;;5108691;27;20490;-80
2023/03/08 08:02:38;;;;;;;7.47;1.67;;;0.90;99.90;;;;;;5092723;27;20134;-77
2023/03/08 08:05:04;;;;;;;4.03;1.70;;;1.00;99.90;;;;;;5108540;27;20431;-78
2023/03/08 08:07:30;;;;;;;5.05;1.80;;;1.00;99.90;;;;;;5109457;27;20502;-78
2023/03/08 08:09:56;;;;;;;4.57;1.70;;;2.10;99.90;;;;;;5127354;27;20114;-80
2023/03/08 08:12:22;;;;;;;4.90;1.95;;;1.40;99.90;;;;;;5109415;27;20497;-78
2023/03/08 08:14:51;;;;;;;4.18;1.38;;;1.30;99.90;;;;;;5108844;27;20042;-77
2023/03/08 08:17:19;;;;;;;3.90;1.67;;;2.80;99.90;;;;;;5108602;27;20084;-78
2023/03/08 08:19:44;;;;;;;3.72;1.83;;;1.40;99.90;;;;;;5109072;27;20049;-78
2023/03/08 08:22:10;;;;;;;2.63;1.95;;;1.50;99.90;;;;;;5127128;27;20047;-77
2023/03/08 08:24:36;;;;;;;6.38;3.75;;;1.70;99.90;;;;;;5109483;27;20497;-78
2023/03/08 08:27:02;;;;;;;4.18;3.03;;;1.50;99.90;;;;;;5126607;27;20122;-78
2023/03/08 08:29:28;;;;;;;5.53;3.00;;;1.60;99.90;;;;;;5127710;27;20080;-78
2023/03/08 08:31:54;;;;;;;6.85;3.45;;;1.60;99.90;;;;;;5127105;27;20046;-78
2023/03/08 08:34:19;;;;;;;6.57;2.40;;;1.70;99.90;;;;;;5126239;27;20054;-78
2023/03/08 08:36:45;;;;;;;4.28;2.95;;;1.80;99.90;;;;;;5126866;27;20039;-78
2023/03/08 08:39:11;;;;;;;4.90;2.60;;;1.80;99.90;;;;;;5107905;27;20055;-78
2023/03/08 08:41:37;;;;;;;4.68;2.17;;;1.90;99.90;;;;;;5108854;27;20051;-78
2023/03/08 08:44:03;;;;;;;3.15;2.10;;;1.90;99.90;;;;;;5126581;27;20107;-78
2023/03/08 08:46:32;;;;;;;3.55;1.75;;;2.00;99.90;;;;;;5108665;27;20057;-78
2023/03/08 08:48:58;;;;;;;4.50;2.20;;;2.10;99.90;;;;;;5107768;27;20050;-78
2023/03/08 08:51:24;;;;;;;4.70;1.58;;;2.20;99.90;;;;;;5108408;27;20054;-78
2023/03/08 08:53:50;;;;;;;4.70;2.10;;;2.20;99.90;;;;;;5127211;27;20059;-78
2023/03/08 08:56:18;;;;;;;6.55;2.55;;;3.00;99.90;;;;;;5126584;27;20042;-78
2023/03/08 08:58:45;;;;;;;3.60;1.88;;;3.80;99.90;;;;;;5126628;27;20371;-78
2023/03/08 09:01:19;;;;;;;5.38;1.90;;;2.40;99.90;;;;;;5126842;27;20410;-78
2023/03/08 09:03:46;;;;;;;6.43;2.10;;;2.50;99.90;;;;;;5127656;27;20032;-80
2023/03/08 09:06:13;;;;;;;12.25;2.05;;;2.60;99.90;;;;;;5093451;27;20068;-78
2023/03/08 09:08:39;;;;;;;8.32;2.05;;;2.70;99.90;;;;;;5129435;27;20122;-78
2023/03/08 09:11:08;;;;;;;7.88;2.10;;;2.80;99.90;;;;;;5129180;27;20104;-78
2023/03/08 09:13:37;;;;;;;6.45;2.08;;;2.80;99.90;;;;;;5108481;27;20046;-78
2023/03/08 09:16:03;;;;;;;8.15;2.63;;;4.10;99.90;;;;;;5127502;28;20397;-77
2023/03/08 09:18:29;;;;;;;4.78;2.85;;;2.90;99.90;;;;;;5107350;28;20043;-77
2023/03/08 09:20:54;;;;;;;6.10;2.53;;;3.00;99.90;;;;;;5108295;28;20069;-78
2023/03/08 09:23:20;;;;;;;4.32;2.97;;;3.10;99.90;;;;;;5090911;28;20254;-78
2023/03/08 09:25:54;;;;;;;5.45;2.95;;;3.20;99.90;;;;;;5107910;28;20499;-78
2023/03/08 09:28:20;;;;;;;5.43;2.78;;;3.30;99.90;;;;;;5091691;28;20158;-83
2023/03/08 09:30:46;;;;;;;4.68;2.60;;;3.30;99.90;;;;;;5090756;28;20488;-78
2023/03/08 09:33:11;;;;;;;5.15;2.75;;;3.40;99.90;;;;;;5108834;28;20386;-78
2023/03/08 09:35:37;;;;;;;6.85;4.05;;;3.40;99.90;;;;;;5107739;28;20130;-77
2023/03/08 09:38:03;;;;;;;7.68;3.58;;;4.30;99.90;;;;;;5108313;28;20031;-77
2023/03/08 09:40:38;;;;;;;7.22;4.00;;;3.60;99.90;;;;;;5091635;28;20397;-79
2023/03/08 09:43:05;;;;;;;5.93;2.72;;;4.60;99.90;;;;;;5107809;28;20043;-79
2023/03/08 09:45:32;;;;;;;5.50;2.10;;;3.70;99.90;;;;;;5108865;28;20158;-78
2023/03/08 09:48:18;;;;;;;5.72;2.55;;;3.80;99.90;;;;;;5074304;28;20050;-78
2023/03/08 09:50:48;;;;;;;5.65;2.25;;;3.90;99.90;;;;;;5108735;28;20043;-79
2023/03/08 09:53:30;;;;;;;3.70;2.10;;;3.90;99.90;;;;;;5107466;28;20077;-79
2023/03/08 09:56:14;;;;;;;5.45;2.45;;;4.00;99.90;;;;;;5090217;28;20053;-78
2023/03/08 09:58:46;;;;;;;7.43;2.35;;;4.10;99.90;;;;;;5108070;28;20055;-79
2023/03/08 10:01:49;;;;;;;4.13;2.00;;;4.10;99.90;;;;;;5107577;28;20855;-78
2023/03/08 10:04:20;;;;;;;4.70;2.03;;;4.20;99.90;;;;;;5125961;28;20494;-79
2023/03/08 10:07:48;;;;;;;6.50;2.75;;;4.20;99.90;;;;;;5126490;28;20082;-79
2023/03/08 10:10:25;;;;;;;7.50;1.77;;;4.30;99.90;;;;;;5043109;28;20045;-78
2023/03/08 10:13:14;;;;;;;4.22;1.70;;;4.40;99.90;;;;;;5045925;28;20045;-78
2023/03/08 10:15:47;;;;;;;6.40;1.90;;;4.40;99.90;;;;;;5105089;27;20098;-78
2023/03/08 10:18:36;;;;;;;4.78;2.05;;;4.40;99.90;;;;;;5110631;27;20522;-78
2023/03/08 10:21:02;;;;;;;8.63;1.83;;;4.50;99.90;;;;;;5077344;27;20050;-78
2023/03/08 10:23:31;;;;;;;3.95;1.92;;;4.60;99.90;;;;;;5111542;27;20547;-79
2023/03/08 10:25:57;;;;;;;10.02;2.17;;;4.70;99.90;;;;;;5110364;27;20050;-78
2023/03/08 10:28:25;;;;;;;4.95;2.47;;;4.80;99.90;;;;;;5111938;27;20051;-78
2023/03/08 10:30:57;;;;;;;13.00;2.80;;;5.20;99.90;;;;;;5110456;27;20043;-79
2023/03/08 10:33:26;;;;;;;4.53;2.25;;;5.00;99.90;;;;;;5111940;27;20509;-79
2023/03/08 10:36:11;;;;;;;4.50;2.97;;;5.10;99.90;;;;;;5093499;27;20390;-78
2023/03/08 10:38:38;;;;;;;6.53;2.47;;;5.20;99.90;;;;;;5093468;27;20108;-79
2023/03/08 10:41:11;;;;;;;6.03;2.60;;;5.30;99.90;;;;;;5094001;27;20043;-78
2023/03/08 10:43:49;;;;;;;4.72;2.20;;;5.40;99.90;;;;;;5110270;27;20053;-78
2023/03/08 10:46:20;;;;;;;7.80;1.75;;;5.50;99.90;;;;;;5130184;27;20043;-78
2023/03/08 10:48:46;;;;;;;4.07;1.17;;;5.60;99.90;;;;;;5129151;27;20442;-79
2023/03/08 10:51:19;;;;;;;7.25;1.10;;;5.70;99.90;;;;;;5110432;27;20051;-78
2023/03/08 10:54:14;;;;;;;3.50;1.30;;;5.80;99.90;;;;;;5129317;27;20180;-78
2023/03/08 10:56:49;;;;;;;4.70;2.13;;;6.10;99.90;;;;;;5092525;27;20062;-79
2023/03/08 10:59:36;;;;;;;3.90;0.95;;;5.80;99.90;;;;;;5110796;27;20107;-79
2023/03/08 11:02:17;;;;;;;2.10;0.90;;;6.00;99.90;;;;;;5110920;27;20051;-78
2023/03/08 11:04:57;;;;;;;5.28;0.90;;;5.80;99.90;;;;;;5128846;27;20035;-78
2023/03/08 11:07:27;;;;;;;4.20;0.80;;;6.80;99.90;;;;;;5129484;27;20066;-78
2023/03/08 11:10:11;;;;;;;13.55;3.78;;;5.70;99.90;;;;;;5128566;27;20058;-79
2023/03/08 11:12:37;;;;;;;1.80;0.70;;;5.70;99.90;;;;;;5110690;27;20070;-79
2023/03/08 11:15:15;;;;;;;3.10;0.52;;;5.80;99.90;;;;;;5110382;27;20482;-80
2023/03/08 11:17:56;;;;;;;6.40;0.75;;;5.90;99.90;;;;;;5110157;27;20394;-80
2023/03/08 11:20:27;;;;;;;0.98;0.47;;;5.90;99.90;;;;;;5093776;27;20075;-79
2023/03/08 11:23:22;;;;;;;5.70;0.70;;;6.00;99.90;;;;;;5127791;27;20050;-79
2023/03/08 11:26:04;;;;;;;6.63;0.80;;;6.00;99.90;;;;;;5128452;27;20070;-79
2023/03/08 11:28:43;;;;;;;3.05;0.60;;;6.00;99.90;;;;;;5110484;27;20039;-79
2023/03/08 11:31:33;;;;;;;3.85;0.70;;;6.00;99.90;;;;;;5128311;27;20542;-79
2023/03/08 11:34:11;;;;;;;5.30;0.80;;;6.10;99.90;;;;;;5110218;27;20419;-79
2023/03/08 11:36:43;;;;;;;3.22;0.50;;;6.10;99.90;;;;;;5128866;27;20493;-79
2023/03/08 11:39:34;;;;;;;1.83;0.57;;;6.80;99.90;;;;;;5109410;27;20116;-79
2023/03/08 11:42:17;;;;;;;3.33;0.80;;;6.10;99.90;;;;;;5110739;27;20212;-79
2023/03/08 11:44:43;;;;;;;;;;;6.20;99.90;;;;;;5110059;27;20062;-79
2023/03/08 11:47:38;;;;;;;19.15;2.47;;;6.20;99.90;;;;;;5127789;27;19919;-78
2023/03/08 11:50:22;;;;;;;2.65;0.80;;;6.30;99.90;;;;;;5128846;27;20051;-85
2023/03/08 11:53:09;;;;;;;2.70;1.05;;;6.40;99.90;;;;;;5127927;27;20040;-79
2023/03/08 11:55:48;;;;;;;2.00;0.80;;;6.40;99.90;;;;;;5109297;27;20082;-80
2023/03/08 11:58:13;;;;;;;4.45;1.15;;;7.30;99.90;;;;;;5109778;27;20051;-79
2023/03/08 12:00:44;;;;;;;4.13;0.63;;;7.20;99.90;;;;;;5127932;27;20043;-79
2023/03/08 12:03:16;;;;;;;1.05;0.40;;;6.40;99.90;;;;;;5128943;27;20584;-79
2023/03/08 12:05:53;;;;;;;5.67;0.50;;;7.50;99.90;;;;;;5127590;27;20109;-79
2023/03/08 12:08:45;;;;;;;5.88;1.75;;;6.50;99.90;;;;;;5109497;27;20443;-79
2023/03/08 12:11:29;;;;;;;2.65;0.52;;;6.50;99.90;;;;;;5092647;27;20050;-79
2023/03/08 12:14:09;;;;;;;1.67;0.50;;;6.60;99.90;;;;;;5108776;27;20460;-79
2023/03/08 12:16:59;;;;;;;3.42;0.50;;;7.60;99.90;;;;;;5109296;27;20079;-79
2023/03/08 12:19:44;;;;;;;3.55;0.60;;;6.70;99.90;;;;;;5108942;27;20076;-78
2023/03/08 12:22:17;;;;;;;3.25;0.63;;;6.80;99.90;;;;;;5108930;27;20039;-79
2023/03/08 12:24:52;;;;;;;2.20;0.50;;;7.50;99.90;;;;;;5109864;27;20039;-79
2023/03/08 12:27:33;;;;;;;4.03;0.50;;;6.70;99.90;;;;;;5108818;27;20432;-78
2023/03/08 12:30:36;;;;;;;11.45;0.93;;;6.80;99.90;;;;;;5108851;27;20233;-79
2023/03/08 12:33:04;;;;;;;5.60;0.68;;;6.70;99.90;;;;;;5092501;27;20044;-79
2023/03/08 12:35:47;;;;;;;2.63;0.60;;;6.70;99.90;;;;;;5090952;27;20516;-78
2023/03/08 12:38:16;;;;;;;6.63;0.60;;;6.70;99.90;;;;;;5108852;27;20133;-78
2023/03/08 12:40:47;;;;;;;4.03;0.60;;;6.70;99.90;;;;;;5092445;27;20054;-77
2023/03/08 12:43:20;;;;;;;2.70;0.60;;;6.70;99.90;;;;;;5108699;27;20058;-78
2023/03/08 12:45:59;;;;;;;5.03;0.85;;;6.70;99.90;;;;;;5109511;27;20190;-77
2023/03/08 12:48:43;;;;;;;2.42;0.60;;;6.70;99.90;;;;;;5107867;27;20039;-77
2023/03/08 12:51:11;;;;;;;7.28;0.50;;;6.80;99.90;;;;;;5108346;27;20130;-78
2023/03/08 12:53:53;;;;;;;5.43;0.45;;;6.80;99.90;;;;;;5091757;27;20111;-77
2023/03/08 12:56:47;;;;;;;3.38;0.60;;;6.90;99.90;;;;;;5090899;27;20046;-77
2023/03/08 12:59:12;;;;;;;;;;;6.90;99.90;;;;;;5109307;27;20055;-77
2023/03/08 13:01:44;;;;;;;6.32;0.80;;;6.70;99.90;;;;;;5107828;28;19926;-77
2023/03/08 13:04:34;;;;;;;1.90;0.50;;;6.70;99.90;;;;;;5108296;27;20070;-78